createdAt,value
2019-01-03T00:01:40.929Z,28.37
2019-01-03T00:07:04.938Z,29.73
2019-01-03T00:12:34.117Z,28.57
2019-01-03T00:18:04.109Z,31.63
2019-01-03T00:23:40.404Z,26.60
2019-01-03T00:29:04.847Z,25.60
2019-01-03T00:34:31.955Z,26.43
2019-01-03T00:39:47.402Z,25.47
2019-01-03T00:45:22.608Z,35.30
2019-01-03T00:50:58.880Z,28.23
2019-01-03T00:56:21.762Z,29.87
2019-01-03T01:01:44.495Z,29.40
2019-01-03T01:07:17.830Z,25.20
2019-01-03T01:12:57.202Z,26.60
2019-01-03T01:18:30.182Z,24.10
2019-01-03T01:24:07.451Z,27.03
2019-01-03T01:29:30.760Z,29.67
2019-01-03T01:35:09.818Z,29.50
2019-01-03T01:40:32.622Z,42.93
2019-01-03T01:45:59.783Z,35.80
2019-01-03T01:51:22.579Z,45.47
2019-01-03T01:56:45.246Z,38.37
2019-01-03T02:02:18.410Z,33.90
2019-01-03T02:07:39.616Z,30.53
2019-01-03T02:13:22.019Z,34.43
2019-01-03T02:18:44.193Z,35.07
2019-01-03T02:24:08.648Z,35.97
2019-01-03T02:29:31.522Z,37.63
2019-01-03T02:34:54.484Z,37.70
2019-01-03T02:40:27.458Z,37.00
2019-01-03T02:45:48.566Z,35.27
2019-01-03T02:51:08.878Z,36.27
2019-01-03T02:56:28.977Z,35.63
2019-01-03T03:02:05.133Z,34.80
2019-01-03T03:07:27.968Z,34.63
2019-01-03T03:12:51.984Z,33.37
2019-01-03T03:18:28.793Z,30.27
2019-01-03T03:23:44.885Z,33.63
2019-01-03T03:29:13.217Z,32.60
2019-01-03T03:34:49.212Z,37.40
2019-01-03T03:40:12.538Z,39.27
2019-01-03T03:45:29.246Z,36.40
2019-01-03T03:50:55.934Z,44.13
2019-01-03T03:56:22.482Z,25.70
2019-01-03T04:01:45.175Z,35.47
2019-01-03T04:07:24.573Z,34.43
2019-01-03T04:13:03.774Z,34.03
2019-01-03T04:18:26.960Z,34.10
2019-01-03T04:24:09.388Z,38.33
2019-01-03T04:29:39.124Z,37.17
2019-01-03T04:34:55.913Z,33.43
2019-01-03T04:40:20.439Z,34.07
2019-01-03T04:45:43.114Z,37.87
2019-01-03T04:51:22.982Z,36.20
2019-01-03T04:57:05.017Z,36.00
2019-01-03T05:02:21.898Z,36.30
2019-01-03T05:07:44.946Z,39.97
2019-01-03T05:13:07.939Z,39.67
2019-01-03T05:18:32.079Z,43.53
2019-01-03T05:24:08.302Z,41.67
2019-01-03T05:29:28.189Z,41.17
2019-01-03T05:34:51.242Z,41.70
2019-01-03T05:40:13.912Z,42.73
2019-01-03T05:45:36.770Z,40.70
2019-01-03T05:51:06.923Z,42.73
2019-01-03T05:56:39.924Z,48.63
2019-01-03T06:02:04.032Z,45.30
2019-01-03T06:07:27.784Z,36.37
2019-01-03T06:12:44.175Z,37.77
2019-01-03T06:18:14.345Z,44.60
2019-01-03T06:23:50.231Z,42.90
2019-01-03T06:29:21.241Z,40.40
2019-01-03T06:34:44.294Z,43.90
2019-01-03T06:40:11.387Z,43.20
2019-01-03T06:45:34.025Z,43.13
2019-01-03T06:51:01.427Z,37.37
2019-01-03T06:56:34.613Z,43.23
2019-01-03T07:02:07.026Z,39.80
2019-01-03T07:07:46.394Z,39.40
2019-01-03T07:13:09.257Z,36.67
2019-01-03T07:18:39.412Z,37.03
2019-01-03T07:24:02.335Z,33.93
2019-01-03T07:29:38.182Z,34.17
2019-01-03T07:35:05.258Z,32.67
2019-01-03T07:40:30.172Z,35.00
2019-01-03T07:45:55.598Z,36.83
2019-01-03T07:51:18.802Z,36.73
2019-01-03T07:56:41.543Z,46.13
2019-01-03T08:02:03.154Z,46.90
2019-01-03T08:07:22.447Z,41.00
2019-01-03T08:12:45.199Z,39.67
2019-01-03T08:18:18.349Z,38.30
2019-01-03T08:23:57.568Z,41.00
2019-01-03T08:29:34.267Z,39.27
2019-01-03T08:35:00.448Z,35.37
2019-01-03T08:40:40.173Z,34.60
2019-01-03T08:46:10.383Z,37.17
2019-01-03T08:51:43.731Z,34.20
2019-01-03T08:57:23.287Z,37.40
2019-01-03T09:02:55.641Z,33.70
2019-01-03T09:08:21.183Z,36.07
2019-01-03T09:13:45.308Z,35.70
2019-01-03T09:19:12.142Z,35.83
2019-01-03T09:24:38.969Z,38.73
2019-01-03T09:30:21.655Z,33.53
2019-01-03T09:36:01.925Z,35.87
2019-01-03T09:41:29.495Z,32.77
2019-01-03T09:46:35.445Z,33.73
2019-01-03T09:51:40.761Z,32.70
2019-01-03T09:56:45.955Z,32.57
2019-01-03T10:01:51.495Z,37.30
2019-01-03T10:06:57.304Z,38.23
2019-01-03T10:12:03.056Z,34.67
2019-01-03T10:17:08.395Z,33.97
2019-01-03T10:22:13.852Z,29.03
2019-01-03T10:27:19.083Z,29.50
2019-01-03T10:32:24.997Z,33.30
2019-01-03T10:37:30.767Z,32.63
2019-01-03T10:42:36.158Z,30.33
2019-01-03T10:47:41.381Z,31.27
2019-01-03T10:52:47.186Z,28.57
2019-01-03T10:57:52.625Z,32.37
2019-01-03T11:02:58.117Z,29.07
2019-01-03T11:08:03.540Z,33.47
2019-01-03T11:13:09.991Z,34.90
2019-01-03T11:18:15.572Z,26.07
2019-01-03T11:23:26.477Z,24.17
2019-01-03T11:28:32.797Z,23.53
2019-01-03T11:33:44.155Z,26.27
2019-01-03T11:38:50.774Z,24.93
2019-01-03T11:44:07.967Z,29.37
2019-01-03T11:49:14.162Z,25.50
2019-01-03T11:54:22.005Z,30.53
2019-01-03T11:59:27.803Z,25.90
2019-01-03T12:04:34.381Z,29.40
2019-01-03T12:09:40.109Z,27.10
2019-01-03T12:14:45.443Z,34.07
2019-01-03T12:20:02.447Z,33.10
2019-01-03T12:25:08.137Z,30.37
2019-01-03T12:30:13.467Z,31.03
2019-01-03T12:35:18.678Z,29.10
2019-01-03T12:40:24.133Z,32.93
2019-01-03T12:45:29.547Z,31.97
2019-01-03T12:50:35.271Z,29.23
2019-01-03T12:55:40.555Z,35.10
2019-01-03T13:00:46.144Z,35.00
2019-01-03T13:05:51.606Z,31.63
2019-01-03T13:10:56.810Z,32.30
2019-01-03T13:16:02.047Z,29.30
2019-01-03T13:21:12.967Z,32.73
2019-01-03T13:26:18.107Z,30.50
2019-01-03T13:31:26.909Z,33.17
2019-01-03T13:36:35.255Z,34.20
2019-01-03T13:41:45.791Z,35.17
2019-01-03T13:46:51.089Z,35.83
2019-01-03T13:51:57.298Z,35.77
2019-01-03T13:57:03.967Z,36.57
2019-01-03T14:02:14.416Z,38.57
2019-01-03T14:07:20.116Z,37.53
2019-01-03T14:12:25.145Z,34.73
2019-01-03T14:17:31.867Z,33.63
2019-01-03T14:22:37.756Z,34.67
2019-01-03T14:27:43.257Z,33.30
2019-01-03T14:32:53.535Z,36.43
2019-01-03T14:37:59.976Z,38.97
2019-01-03T14:43:05.819Z,34.27
2019-01-03T14:48:13.386Z,36.53
2019-01-03T14:53:18.631Z,37.07
2019-01-03T14:58:24.203Z,35.80
2019-01-03T15:03:29.418Z,33.40
2019-01-03T15:08:34.653Z,38.60
2019-01-03T15:13:39.977Z,41.93
2019-01-03T15:18:45.806Z,42.30
2019-01-03T15:23:51.053Z,39.77
2019-01-03T15:28:56.153Z,40.27
2019-01-03T15:34:01.417Z,40.60
2019-01-03T15:39:06.871Z,37.50
2019-01-03T15:44:12.047Z,37.60
2019-01-03T15:49:17.268Z,39.97
2019-01-03T15:54:22.759Z,40.30
2019-01-03T15:59:27.912Z,44.27
2019-01-03T16:04:33.105Z,40.63
2019-01-03T16:09:39.667Z,42.90
2019-01-03T16:14:45.509Z,38.63
2019-01-03T16:19:50.677Z,39.20
2019-01-03T16:24:55.759Z,39.13
2019-01-03T16:30:00.938Z,40.33
2019-01-03T16:35:06.803Z,40.10
2019-01-03T16:40:13.412Z,43.53
2019-01-03T16:45:19.189Z,39.77
2019-01-03T16:50:24.588Z,43.00
2019-01-03T16:55:30.895Z,40.93
2019-01-03T17:00:36.333Z,38.97
2019-01-03T17:05:41.893Z,40.53
2019-01-03T17:10:47.198Z,38.60
2019-01-03T17:15:52.460Z,42.43
2019-01-03T17:21:00.477Z,35.80
2019-01-03T17:26:09.359Z,38.27
2019-01-03T17:31:14.932Z,37.27
2019-01-03T17:36:20.687Z,37.43
2019-01-03T17:41:28.137Z,39.80
2019-01-03T17:46:35.831Z,36.90
2019-01-03T17:51:43.163Z,36.97
2019-01-03T17:56:48.573Z,35.60
2019-01-03T18:01:54.726Z,39.67
2019-01-03T18:07:01.752Z,39.63
2019-01-03T18:12:07.079Z,41.90
2019-01-03T18:17:12.797Z,43.83
2019-01-03T18:22:18.757Z,42.37
2019-01-03T18:27:26.191Z,44.77
2019-01-03T18:32:32.352Z,45.80
2019-01-03T18:37:38.209Z,43.23
2019-01-03T18:42:45.038Z,42.07
2019-01-03T18:47:50.757Z,45.23
2019-01-03T18:52:56.115Z,38.80
2019-01-03T18:58:02.313Z,41.83
2019-01-03T19:03:08.328Z,41.00
2019-01-03T19:08:13.545Z,42.23
2019-01-03T19:13:18.725Z,39.57
2019-01-03T19:18:26.290Z,39.50
2019-01-03T19:23:33.157Z,42.23
2019-01-03T19:28:39.386Z,44.00
2019-01-03T19:33:48.739Z,43.00
2019-01-03T19:38:59.075Z,46.07
2019-01-03T19:44:09.598Z,41.57
2019-01-03T19:49:14.868Z,43.67
2019-01-03T19:54:21.745Z,40.57
2019-01-03T19:59:29.412Z,41.87
2019-01-03T20:04:36.035Z,41.67
2019-01-03T20:10:34.387Z,40.90
2019-01-03T20:15:43.882Z,43.17
2019-01-03T20:20:53.961Z,40.03
2019-01-03T20:25:59.841Z,39.43
2019-01-03T20:31:10.922Z,41.03
2019-01-03T20:36:19.869Z,43.57
2019-01-03T20:41:29.673Z,44.60
2019-01-03T20:46:39.099Z,41.90
2019-01-03T20:51:44.717Z,44.03
2019-01-03T20:56:52.391Z,44.10
2019-01-03T21:01:59.729Z,45.47
2019-01-03T21:07:05.862Z,46.80
2019-01-03T21:12:11.944Z,47.20
2019-01-03T21:17:17.477Z,42.23
2019-01-03T21:22:23.965Z,44.33
2019-01-03T21:27:30.085Z,42.70
2019-01-03T21:32:45.857Z,47.90
2019-01-03T21:37:55.245Z,45.57
2019-01-03T21:43:03.836Z,48.50
2019-01-03T21:48:08.912Z,50.27
2019-01-03T21:53:17.696Z,44.80
2019-01-03T21:58:23.380Z,48.43
2019-01-03T22:03:39.385Z,45.20
2019-01-03T22:08:48.266Z,44.57
2019-01-03T22:13:54.042Z,44.47
2019-01-03T22:19:01.507Z,47.10
2019-01-03T22:24:10.304Z,47.50
2019-01-03T22:29:16.010Z,42.87
2019-01-03T22:34:21.380Z,44.23
2019-01-03T22:39:27.610Z,41.30
2019-01-03T22:44:33.270Z,50.30
2019-01-03T22:49:40.158Z,42.13
2019-01-03T22:54:45.655Z,41.13
2019-01-03T22:59:52.678Z,42.87
2019-01-03T23:04:58.272Z,34.37
2019-01-03T23:10:03.677Z,39.07
2019-01-03T23:15:10.472Z,34.73
2019-01-03T23:20:16.744Z,31.53
2019-01-03T23:25:21.895Z,34.60
2019-01-03T23:30:27.400Z,37.50
2019-01-03T23:35:33.834Z,31.53
2019-01-03T23:40:39.470Z,35.10
2019-01-03T23:45:44.869Z,35.63
2019-01-03T23:50:50.459Z,35.77
2019-01-03T23:55:59.444Z,37.47
